To NAV CANADA Home Page Login to a new session Search on AWWS site Feedback and Comments Disclaimer Vers la page française équivalente Tips FAQ What's new on the site To the Forecasts and Observations / NOTAM section To "File a Flight Plan" website Publications and other links Update of the User's profile FIC Telephone Numbers My Weather Data Folder Route Weather Data Regional Weather Data Local Weather Data To the Forecasts and Observations / NOTAM section
Request Generated 02/24/2017 at 03:37:36 UTC . Weather information available at that time is displayed.

METAR/TAF

ARVIAT/NU    (show WxCam)

METAR CYEK 240300Z AUTO 33009KT 9SM CLR M23/M26 A3036 RMK SLP285=
METAR CYEK 240200Z AUTO 33008KT 9SM CLR M23/M26 A3037 RMK SLP286=
METAR CYEK 240100Z AUTO 32007KT 9SM CLR M22/M26 A3037 RMK SLP288=

TAF AMD CYEK 240209Z 2402/2412 31008KT P6SM SKC
RMK FCST BASED ON AUTO OBS. NXT FCST BY 240600Z=
Your time UTC time
Weather data provided by Environment Canada and NAV CANADA